createdAt,value
2022-08-07T00:02:36.859Z,32.00
2022-08-07T00:05:01.609Z,33.00
2022-08-07T00:07:40.292Z,32.00
2022-08-07T00:10:25.968Z,32.00
2022-08-07T00:13:00.485Z,31.50
2022-08-07T00:15:38.328Z,30.50
2022-08-07T00:18:19.389Z,31.00
2022-08-07T00:21:07.949Z,31.00
2022-08-07T00:23:52.801Z,30.00
2022-08-07T00:26:49.465Z,30.00
2022-08-07T00:29:06.686Z,30.00
2022-08-07T00:31:37.634Z,30.50
2022-08-07T00:34:11.043Z,30.50
2022-08-07T00:36:43.012Z,30.00
2022-08-07T00:39:12.805Z,30.00
2022-08-07T00:41:53.108Z,30.50
2022-08-07T00:44:21.549Z,30.50
2022-08-07T00:46:48.442Z,30.00
2022-08-07T00:49:24.883Z,30.50
2022-08-07T00:52:06.018Z,30.00
2022-08-07T00:54:36.885Z,30.00
2022-08-07T00:57:07.824Z,31.25
2022-08-07T00:59:39.499Z,32.00
2022-08-07T01:02:13.925Z,31.75
2022-08-07T01:04:58.219Z,30.75
2022-08-07T01:07:29.216Z,29.00
2022-08-07T01:10:06.090Z,30.00
2022-08-07T01:12:38.882Z,31.00
2022-08-07T01:15:07.360Z,31.00
2022-08-07T01:17:40.073Z,30.00
2022-08-07T01:20:17.089Z,32.00
2022-08-07T01:22:58.373Z,31.25
2022-08-07T01:25:54.445Z,32.00
2022-08-07T01:28:22.219Z,30.75
2022-08-07T01:30:52.802Z,30.00
2022-08-07T01:33:22.484Z,29.75
2022-08-07T01:35:53.368Z,31.00
2022-08-07T01:38:29.176Z,30.00
2022-08-07T01:41:04.438Z,30.00
2022-08-07T01:43:38.559Z,30.00
2022-08-07T01:46:08.351Z,31.50
2022-08-07T01:48:46.737Z,30.00
2022-08-07T01:51:58.673Z,31.00
2022-08-07T01:54:32.578Z,29.50
2022-08-07T01:58:00.985Z,29.50
2022-08-07T02:00:14.292Z,30.00
2022-08-07T02:03:19.247Z,30.25
2022-08-07T02:06:01.300Z,30.00
2022-08-07T02:08:36.403Z,30.50
2022-08-07T02:11:04.715Z,29.00
2022-08-07T02:13:56.559Z,29.00
2022-08-07T02:16:28.745Z,31.00
2022-08-07T02:20:05.627Z,32.00
2022-08-07T02:21:57.694Z,31.50
2022-08-07T02:24:29.429Z,31.00
2022-08-07T02:27:01.288Z,30.50
2022-08-07T02:29:32.726Z,30.75
2022-08-07T02:32:04.273Z,30.00
2022-08-07T02:34:33.220Z,30.00
2022-08-07T02:37:08.101Z,29.50
2022-08-07T02:39:43.112Z,31.00
2022-08-07T02:42:31.276Z,32.00
2022-08-07T02:45:07.331Z,30.00
2022-08-07T02:48:01.872Z,31.00
2022-08-07T02:50:34.470Z,31.50
2022-08-07T02:53:10.952Z,32.75
2022-08-07T02:56:03.198Z,32.00
2022-08-07T02:58:36.736Z,32.00
2022-08-07T03:01:16.057Z,31.00
2022-08-07T03:03:49.800Z,31.00
2022-08-07T03:06:26.132Z,31.00
2022-08-07T03:09:02.591Z,31.00
2022-08-07T03:11:32.991Z,30.75
2022-08-07T03:14:09.163Z,34.25
2022-08-07T03:16:38.424Z,34.00
2022-08-07T03:19:08.399Z,32.50
2022-08-07T03:21:36.419Z,34.00
2022-08-07T03:24:19.927Z,36.00
2022-08-07T03:26:58.276Z,35.00
2022-08-07T03:29:36.829Z,36.00
2022-08-07T03:32:13.727Z,36.50
2022-08-07T03:35:17.581Z,36.75
2022-08-07T03:37:55.013Z,38.00
2022-08-07T03:40:35.981Z,38.00
2022-08-07T03:43:13.900Z,38.00
2022-08-07T03:45:51.369Z,38.75
2022-08-07T03:48:24.313Z,39.00
2022-08-07T03:50:57.850Z,37.50
2022-08-07T03:54:05.861Z,39.00
2022-08-07T03:56:32.552Z,38.25
2022-08-07T03:59:08.102Z,39.75
2022-08-07T04:01:45.632Z,41.00
2022-08-07T04:04:20.350Z,41.00
2022-08-07T04:06:53.081Z,39.50
2022-08-07T04:09:24.092Z,41.25
2022-08-07T04:12:20.846Z,40.00
2022-08-07T04:14:49.004Z,41.00
2022-08-07T04:18:57.866Z,41.75
2022-08-07T04:20:26.688Z,41.00
2022-08-07T04:23:01.977Z,43.50
2022-08-07T04:25:39.306Z,40.75
2022-08-07T04:28:15.178Z,39.00
2022-08-07T04:30:57.387Z,39.75
2022-08-07T04:33:35.298Z,41.00
2022-08-07T04:36:06.599Z,42.00
2022-08-07T04:38:36.233Z,41.00
2022-08-07T04:41:04.270Z,39.00
2022-08-07T04:44:12.566Z,37.00
2022-08-07T04:47:56.884Z,39.00
2022-08-07T04:50:44.205Z,40.75
2022-08-07T04:54:01.771Z,40.00
2022-08-07T04:58:10.821Z,40.00
2022-08-07T05:00:12.875Z,39.00
2022-08-07T05:02:20.682Z,39.00
2022-08-07T05:05:11.440Z,38.50
2022-08-07T05:08:00.914Z,39.00
2022-08-07T05:10:37.477Z,38.00
2022-08-07T05:14:56.531Z,38.00
2022-08-07T05:16:06.412Z,36.00
2022-08-07T05:18:44.026Z,36.00
2022-08-07T05:21:14.684Z,37.00
2022-08-07T05:23:52.208Z,37.00
2022-08-07T05:26:24.239Z,37.00
2022-08-07T05:29:04.097Z,37.75
2022-08-07T05:31:51.233Z,38.00
2022-08-07T05:34:45.675Z,36.00
2022-08-07T05:37:15.120Z,35.00
2022-08-07T05:40:05.414Z,34.50
2022-08-07T05:42:41.251Z,35.25
2022-08-07T05:45:26.209Z,35.25
2022-08-07T05:48:04.182Z,35.75
2022-08-07T05:50:42.816Z,36.00
2022-08-07T05:54:09.344Z,36.00
2022-08-07T05:56:12.485Z,34.00
2022-08-07T05:58:52.399Z,35.50
2022-08-07T06:01:24.804Z,36.75
2022-08-07T06:04:00.928Z,37.00
2022-08-07T06:06:36.441Z,37.00
2022-08-07T06:09:08.756Z,36.00
2022-08-07T06:12:12.433Z,37.75
2022-08-07T06:14:49.592Z,37.50
2022-08-07T06:17:22.308Z,37.50
2022-08-07T06:20:03.331Z,37.00
2022-08-07T06:22:40.070Z,37.00
2022-08-07T06:25:54.281Z,36.00
2022-08-07T06:28:27.378Z,37.75
2022-08-07T06:30:58.244Z,37.00
2022-08-07T06:33:29.528Z,38.00
2022-08-07T06:36:06.593Z,36.25
2022-08-07T06:40:17.188Z,37.00
2022-08-07T06:42:32.988Z,38.00
2022-08-07T06:46:00.829Z,35.00
2022-08-07T06:52:53.195Z,35.75
2022-08-07T06:55:53.832Z,37.50
2022-08-07T06:58:28.756Z,37.00
2022-08-07T07:01:21.175Z,36.75
2022-08-07T07:03:58.134Z,39.00
2022-08-07T07:07:00.683Z,37.00
2022-08-07T07:09:31.795Z,36.00
2022-08-07T07:12:33.488Z,35.00
2022-08-07T07:15:51.717Z,37.00
2022-08-07T07:22:05.152Z,37.00
2022-08-07T07:26:31.400Z,37.75
2022-08-07T07:28:42.809Z,37.00
2022-08-07T07:31:39.795Z,35.00
2022-08-07T07:34:22.041Z,37.00
2022-08-07T07:37:14.326Z,36.00
2022-08-07T07:40:19.779Z,35.00
2022-08-07T07:43:15.079Z,34.00
2022-08-07T07:46:38.267Z,35.25
2022-08-07T07:48:35.705Z,35.00
2022-08-07T07:51:12.022Z,34.00
2022-08-07T07:54:07.480Z,33.00
2022-08-07T07:56:40.837Z,31.00
2022-08-07T07:59:09.817Z,34.50
2022-08-07T08:02:02.430Z,33.75
2022-08-07T08:04:32.068Z,37.00
2022-08-07T08:07:02.825Z,36.00
2022-08-07T08:10:04.862Z,35.00
2022-08-07T08:12:52.382Z,36.75
2022-08-07T08:15:57.788Z,36.00
2022-08-07T08:18:24.702Z,35.50
2022-08-07T08:20:52.414Z,35.00
2022-08-07T08:23:27.942Z,33.00
2022-08-07T08:26:06.996Z,34.25
2022-08-07T08:28:44.892Z,34.00
2022-08-07T08:31:58.422Z,35.75
2022-08-07T08:34:46.624Z,35.00
2022-08-07T08:38:00.325Z,33.00
2022-08-07T08:40:40.925Z,34.00
2022-08-07T08:43:22.208Z,35.00
2022-08-07T08:46:20.390Z,35.00
2022-08-07T08:49:01.958Z,34.00
2022-08-07T08:52:01.124Z,34.00
2022-08-07T08:54:41.621Z,35.25
2022-08-07T08:57:19.800Z,36.25
2022-08-07T09:00:23.109Z,36.00
2022-08-07T09:03:07.518Z,34.50
2022-08-07T09:05:47.808Z,34.50
2022-08-07T09:08:28.613Z,34.00
2022-08-07T09:11:50.751Z,34.00
2022-08-07T09:14:50.941Z,33.00
2022-08-07T09:18:09.895Z,35.00
2022-08-07T09:20:58.335Z,34.00
2022-08-07T09:24:32.256Z,35.50
2022-08-07T09:26:47.831Z,35.00
2022-08-07T09:30:01.234Z,33.00
2022-08-07T09:32:21.699Z,36.50
2022-08-07T09:34:53.860Z,36.00
2022-08-07T09:37:53.394Z,36.00
2022-08-07T09:40:35.597Z,35.00
2022-08-07T09:44:03.392Z,35.00
2022-08-07T09:47:52.329Z,35.00
2022-08-07T09:50:18.312Z,34.50
2022-08-07T09:52:51.686Z,36.00
2022-08-07T09:56:03.314Z,37.00
2022-08-07T09:58:53.407Z,37.00
2022-08-07T10:01:57.339Z,37.50
2022-08-07T10:05:12.745Z,36.00
2022-08-07T10:08:19.598Z,37.50
2022-08-07T10:11:16.741Z,37.00
2022-08-07T10:14:01.359Z,39.00
2022-08-07T10:16:41.193Z,38.00
2022-08-07T10:19:30.216Z,36.00
2022-08-07T10:22:33.626Z,36.00
2022-08-07T10:25:22.628Z,35.00
2022-08-07T10:28:49.588Z,35.75
2022-08-07T10:31:49.034Z,36.00
2022-08-07T10:34:27.246Z,34.00
2022-08-07T10:37:17.852Z,35.00
2022-08-07T10:40:08.780Z,36.00
2022-08-07T10:42:59.558Z,35.00
2022-08-07T10:45:57.809Z,35.00
2022-08-07T10:48:54.268Z,37.50
2022-08-07T10:51:57.580Z,36.00
2022-08-07T10:54:35.568Z,35.25
2022-08-07T10:57:39.207Z,34.75
2022-08-07T11:00:36.757Z,34.50
2022-08-07T11:03:11.379Z,33.00
2022-08-07T11:06:18.293Z,34.00
2022-08-07T11:09:12.960Z,34.50
2022-08-07T11:12:11.105Z,33.00
2022-08-07T11:14:59.783Z,35.50
2022-08-07T11:17:43.637Z,34.00
2022-08-07T11:20:24.619Z,35.00
2022-08-07T11:23:07.486Z,37.00
2022-08-07T11:26:11.229Z,35.00
2022-08-07T11:28:53.298Z,34.50
2022-08-07T11:31:27.173Z,34.50
2022-08-07T11:34:42.375Z,33.00
2022-08-07T11:37:38.439Z,33.50
2022-08-07T11:40:50.180Z,34.00
2022-08-07T11:43:29.836Z,34.00
2022-08-07T11:46:43.492Z,35.00
2022-08-07T11:50:25.496Z,34.50
2022-08-07T11:52:49.962Z,34.00
2022-08-07T11:56:09.315Z,33.00
2022-08-07T11:59:01.582Z,37.00
2022-08-07T12:02:01.367Z,35.50
2022-08-07T12:04:36.573Z,33.00
2022-08-07T12:07:27.353Z,35.00
2022-08-07T12:10:05.613Z,34.00
2022-08-07T12:12:40.486Z,32.75
2022-08-07T12:15:46.714Z,32.50
2022-08-07T12:18:50.652Z,34.00
2022-08-07T12:22:36.373Z,32.75
2022-08-07T12:24:37.515Z,32.00
2022-08-07T12:27:18.683Z,35.25
2022-08-07T12:30:02.257Z,35.00
2022-08-07T12:32:54.597Z,35.50
2022-08-07T12:36:02.246Z,35.00
2022-08-07T12:38:42.464Z,36.75
2022-08-07T12:41:12.802Z,36.75
2022-08-07T12:44:02.194Z,36.75
2022-08-07T12:46:50.902Z,39.00
2022-08-07T12:49:51.015Z,38.00
2022-08-07T12:52:41.745Z,38.00
2022-08-07T12:56:09.142Z,35.00
2022-08-07T12:58:53.281Z,34.00
2022-08-07T13:01:55.912Z,34.00
2022-08-07T13:04:49.143Z,34.00
2022-08-07T13:08:12.801Z,35.50
2022-08-07T13:11:08.600Z,35.00
2022-08-07T13:14:18.447Z,34.25
2022-08-07T13:17:21.212Z,36.00
2022-08-07T13:20:00.221Z,35.50
2022-08-07T13:22:34.278Z,35.00
2022-08-07T13:25:15.412Z,36.50
2022-08-07T13:28:24.132Z,36.00
2022-08-07T13:31:01.625Z,35.25
2022-08-07T13:34:31.527Z,35.00
2022-08-07T13:37:10.661Z,34.00
2022-08-07T13:40:36.275Z,34.25
2022-08-07T13:42:44.072Z,34.50
2022-08-07T13:46:12.072Z,35.00
2022-08-07T13:48:10.560Z,34.00
2022-08-07T13:52:04.554Z,33.50
2022-08-07T13:55:31.333Z,35.75
2022-08-07T13:58:20.294Z,34.00
2022-08-07T14:00:58.685Z,36.75
2022-08-07T14:04:05.599Z,34.50
2022-08-07T14:06:50.304Z,33.00
2022-08-07T14:10:02.928Z,33.75
2022-08-07T14:15:56.823Z,33.00
2022-08-07T14:18:30.660Z,31.00
2022-08-07T14:21:20.748Z,31.75
2022-08-07T14:23:59.956Z,33.25
2022-08-07T14:26:50.351Z,34.00
2022-08-07T14:30:08.212Z,34.00
2022-08-07T14:32:20.674Z,34.00
2022-08-07T14:34:54.579Z,32.00
2022-08-07T14:37:23.807Z,32.75
2022-08-07T14:40:26.737Z,34.00
2022-08-07T14:43:59.118Z,35.00
2022-08-07T14:46:01.024Z,33.50
2022-08-07T14:48:33.165Z,34.00
2022-08-07T14:51:23.786Z,34.00
2022-08-07T14:54:30.189Z,33.75
2022-08-07T14:56:43.572Z,33.00
2022-08-07T15:00:05.666Z,31.00
2022-08-07T15:05:01.614Z,33.75
2022-08-07T15:07:47.728Z,33.75
2022-08-07T15:10:29.874Z,33.50
2022-08-07T15:13:06.331Z,32.75
2022-08-07T15:15:41.406Z,33.00
2022-08-07T15:18:28.844Z,33.00
2022-08-07T15:21:58.759Z,34.00
2022-08-07T15:27:03.297Z,34.50
2022-08-07T15:30:09.207Z,35.00
2022-08-07T15:38:32.995Z,30.00
2022-08-07T15:41:23.790Z,32.50
2022-08-07T15:44:17.502Z,34.00
2022-08-07T15:46:52.404Z,34.00
2022-08-07T15:50:04.006Z,33.00
2022-08-07T15:52:30.379Z,33.00
2022-08-07T15:55:02.697Z,34.50
2022-08-07T15:57:40.322Z,34.00
2022-08-07T16:00:31.487Z,34.00
2022-08-07T16:03:46.102Z,34.00
2022-08-07T16:06:09.612Z,32.00
2022-08-07T16:08:42.961Z,32.50
2022-08-07T16:12:03.639Z,31.25
2022-08-07T16:14:59.097Z,31.00
2022-08-07T16:18:01.374Z,31.00
2022-08-07T16:20:43.381Z,31.00
2022-08-07T16:23:59.265Z,33.25
2022-08-07T16:26:30.486Z,33.00
2022-08-07T16:30:11.879Z,31.00
2022-08-07T16:32:32.988Z,33.00
2022-08-07T16:35:58.270Z,33.00
2022-08-07T16:38:15.800Z,32.00
2022-08-07T16:41:10.440Z,32.00
2022-08-07T16:44:03.834Z,35.25
2022-08-07T16:47:05.849Z,36.00
2022-08-07T16:50:28.167Z,34.00
2022-08-07T16:53:14.924Z,33.00
2022-08-07T16:56:02.706Z,31.00
2022-08-07T16:59:14.484Z,30.50
2022-08-07T17:01:56.672Z,31.00
2022-08-07T17:04:57.595Z,32.00
2022-08-07T17:07:55.214Z,33.00
2022-08-07T17:10:42.446Z,36.00
2022-08-07T17:13:40.376Z,35.50
2022-08-07T17:16:55.898Z,35.00
2022-08-07T17:20:02.179Z,34.00
2022-08-07T17:22:52.801Z,32.00
2022-08-07T17:25:51.218Z,33.50
2022-08-07T17:28:19.371Z,33.00
2022-08-07T17:31:44.224Z,32.50
2022-08-07T17:35:33.081Z,31.00
2022-08-07T17:38:15.012Z,33.00
2022-08-07T17:42:04.655Z,32.50
2022-08-07T17:44:33.650Z,31.00
2022-08-07T17:47:16.819Z,33.25
2022-08-07T17:49:53.599Z,34.00
2022-08-07T17:52:39.729Z,33.00
2022-08-07T17:55:55.068Z,32.50
2022-08-07T17:58:46.389Z,31.25
2022-08-07T18:01:22.574Z,30.50
2022-08-07T18:04:16.782Z,31.25
2022-08-07T18:06:57.888Z,31.00
2022-08-07T18:09:48.316Z,31.00
2022-08-07T18:13:05.834Z,30.50
2022-08-07T18:15:55.731Z,33.50
2022-08-07T18:19:02.671Z,35.00
2022-08-07T18:21:58.118Z,33.50
2022-08-07T18:24:42.099Z,37.00
2022-08-07T18:27:17.338Z,36.75
2022-08-07T18:30:05.701Z,34.00
2022-08-07T18:33:36.524Z,32.00
2022-08-07T18:36:32.821Z,32.00
2022-08-07T18:40:08.480Z,31.00
2022-08-07T18:42:32.711Z,31.75
2022-08-07T18:45:43.341Z,33.00
2022-08-07T18:50:06.056Z,32.00
2022-08-07T18:51:07.540Z,33.50
2022-08-07T18:54:27.904Z,33.00
2022-08-07T18:57:36.999Z,34.00
2022-08-07T19:00:32.690Z,35.00
2022-08-07T19:03:16.399Z,34.00
2022-08-07T19:06:11.787Z,34.00
2022-08-07T19:08:55.843Z,35.00
2022-08-07T19:12:04.134Z,34.50
2022-08-07T19:16:02.500Z,36.00
2022-08-07T19:18:34.259Z,34.50
2022-08-07T19:21:42.757Z,35.00
2022-08-07T19:24:31.035Z,35.25
2022-08-07T19:28:29.075Z,35.00
2022-08-07T19:30:56.672Z,34.00
2022-08-07T19:32:52.532Z,34.00
2022-08-07T19:35:33.177Z,35.00
2022-08-07T19:38:03.916Z,35.00
2022-08-07T19:40:49.587Z,34.50
2022-08-07T19:43:50.051Z,36.25
2022-08-07T19:46:26.821Z,35.00
2022-08-07T19:49:05.297Z,34.00
2022-08-07T19:51:52.927Z,36.00
2022-08-07T19:54:34.784Z,34.00
2022-08-07T19:58:00.784Z,35.00
2022-08-07T20:00:12.478Z,33.00
2022-08-07T20:03:33.608Z,31.00
2022-08-07T20:06:01.370Z,33.00
2022-08-07T20:08:33.085Z,33.00
2022-08-07T20:11:23.151Z,32.00
2022-08-07T20:14:35.534Z,33.75
2022-08-07T20:17:06.666Z,34.00
2022-08-07T20:19:48.034Z,33.00
2022-08-07T20:22:29.149Z,34.25
2022-08-07T20:25:19.966Z,35.00
2022-08-07T20:27:54.293Z,34.00
2022-08-07T20:30:34.508Z,33.50
2022-08-07T20:33:05.148Z,33.00
2022-08-07T20:35:54.551Z,33.00
2022-08-07T20:38:28.880Z,33.50
2022-08-07T20:40:59.537Z,32.00
2022-08-07T20:43:33.979Z,31.00
2022-08-07T20:46:33.390Z,31.00
2022-08-07T20:49:57.799Z,31.00
2022-08-07T20:52:00.569Z,32.25
2022-08-07T20:54:29.998Z,35.00
2022-08-07T20:57:03.434Z,33.50
2022-08-07T21:00:06.431Z,33.00
2022-08-07T21:02:28.061Z,34.00
2022-08-07T21:05:00.838Z,34.00
2022-08-07T21:07:34.280Z,33.00
2022-08-07T21:10:04.723Z,34.00
2022-08-07T21:12:35.814Z,33.50
2022-08-07T21:15:09.606Z,34.00
2022-08-07T21:18:03.270Z,33.00
2022-08-07T21:20:37.649Z,33.50
2022-08-07T21:23:18.517Z,34.50
2022-08-07T21:26:10.758Z,34.00
2022-08-07T21:28:58.261Z,34.50
2022-08-07T21:32:47.504Z,34.00
2022-08-07T21:34:46.088Z,36.00
2022-08-07T21:37:24.119Z,33.00
2022-08-07T21:40:00.797Z,33.00
2022-08-07T21:42:54.683Z,34.00
2022-08-07T21:46:10.941Z,33.00
2022-08-07T21:48:57.624Z,32.00
2022-08-07T21:51:27.351Z,32.50
2022-08-07T21:54:29.568Z,32.00
2022-08-07T21:57:02.598Z,30.50
2022-08-07T22:00:04.217Z,30.00
2022-08-07T22:02:55.631Z,29.00
2022-08-07T22:05:44.308Z,29.00
2022-08-07T22:08:18.943Z,30.00
2022-08-07T22:10:58.975Z,30.00
2022-08-07T22:13:52.420Z,29.00
2022-08-07T22:16:43.877Z,28.00
2022-08-07T22:19:29.465Z,27.25
2022-08-07T22:22:21.405Z,28.00
2022-08-07T22:24:59.033Z,31.00
2022-08-07T22:28:19.766Z,31.00
2022-08-07T22:30:31.801Z,31.75
2022-08-07T22:33:09.575Z,32.00
2022-08-07T22:35:57.447Z,31.00
2022-08-07T22:38:37.657Z,30.00
2022-08-07T22:41:16.307Z,30.00
2022-08-07T22:44:18.754Z,30.00
2022-08-07T22:47:16.934Z,33.00
2022-08-07T22:50:21.030Z,32.00
2022-08-07T22:54:06.563Z,32.00
2022-08-07T22:56:53.080Z,32.00
2022-08-07T22:59:49.753Z,31.00
2022-08-07T23:02:52.845Z,30.00
2022-08-07T23:06:08.681Z,31.00
2022-08-07T23:08:49.750Z,31.50
2022-08-07T23:11:29.303Z,29.00
2022-08-07T23:14:35.660Z,32.00
2022-08-07T23:17:30.057Z,32.75
2022-08-07T23:20:07.450Z,32.00
2022-08-07T23:23:09.815Z,33.00
2022-08-07T23:25:58.372Z,31.50
2022-08-07T23:29:16.611Z,32.25
2022-08-07T23:34:19.606Z,31.50
2022-08-07T23:35:14.425Z,32.00
2022-08-07T23:38:19.370Z,33.00
2022-08-07T23:41:47.436Z,33.00
2022-08-07T23:44:52.708Z,32.00
2022-08-07T23:47:47.937Z,33.75
2022-08-07T23:50:55.582Z,33.00
2022-08-07T23:54:11.675Z,33.00
2022-08-07T23:57:00.980Z,32.75
